Time;durP1;ratioP1;P1;durP2;ratioP2;P2;SDS_P1;SDS_P2;PMS_P1;PMS_P2;Temp;Humidity;BMP_temperature;BMP_pressure;BME280_temperature;BME280_humidity;BME280_pressure;Samples;Min_cycle;Max_cycle;Signal;HPM_P1;HPM_P2
2022/11/17 00:02:24;;;;;;;83.03;53.92;;;;;;;9.43;100.00;99065.31;4989837;28;20040;-69
2022/11/17 00:04:50;;;;;;;77.85;51.33;;;;;;;9.16;100.00;99018.19;4989773;28;20540;-69
2022/11/17 00:07:15;;;;;;;84.22;54.88;;;;;;;9.29;100.00;99042.22;4989176;28;20054;-70
2022/11/17 00:09:40;;;;;;;85.28;55.38;;;;;;;9.01;100.00;99003.56;4990767;28;20065;-69
2022/11/17 00:14:50;;;;;;;87.50;54.78;;;;;;;9.39;100.00;99068.84;4991077;28;20041;-69
2022/11/17 00:17:15;;;;;;;79.78;53.45;;;;;;;9.17;100.00;99019.88;4990338;28;20023;-70
2022/11/17 00:22:24;;;;;;;89.22;56.53;;;;;;;9.25;100.00;99000.91;4991218;28;20146;-70
2022/11/17 00:24:50;;;;;;;81.97;54.38;;;;;;;9.34;100.00;99017.50;4990686;28;20113;-70
2022/11/17 00:27:16;;;;;;;84.93;54.65;;;;;;;9.14;100.00;99013.19;4991042;28;20030;-70
2022/11/17 00:29:41;;;;;;;85.00;54.00;;;;;;;9.46;100.00;99048.31;4990452;28;20061;-69
2022/11/17 00:34:59;;;;;;;88.38;53.80;;;;;;;9.06;100.00;98977.16;4990647;28;20033;-69
2022/11/17 00:37:27;;;;;;;82.68;54.22;;;;;;;9.31;100.00;99005.75;4990760;28;20046;-70
2022/11/17 00:39:53;;;;;;;85.53;54.50;;;;;;;9.50;100.00;99043.94;4991047;28;20026;-70
2022/11/17 00:42:18;;;;;;;80.88;51.72;;;;;;;9.30;100.00;99001.59;4989368;28;20038;-69
2022/11/17 00:44:44;;;;;;;78.68;51.17;;;;;;;9.20;100.00;98982.53;4991000;28;20523;-70
2022/11/17 00:47:09;;;;;;;79.88;51.22;;;;;;;9.28;100.00;98980.53;4991087;28;20405;-70
2022/11/17 00:49:35;;;;;;;82.13;52.50;;;;;;;9.60;100.00;99012.25;4990844;28;20148;-69
2022/11/17 00:52:01;;;;;;;82.40;53.47;;;;;;;9.66;100.00;99011.16;4989145;28;20030;-70
2022/11/17 00:54:27;;;;;;;82.82;53.72;;;;;;;9.56;100.00;99000.56;4990307;28;20474;-70
2022/11/17 00:56:53;;;;;;;83.38;54.05;;;;;;;9.34;100.00;98962.53;4990835;28;20031;-69
2022/11/17 00:59:18;;;;;;;87.50;55.28;;;;;;;9.49;100.00;99004.22;5007813;28;20109;-70
2022/11/17 01:01:44;;;;;;;83.35;53.67;;;;;;;9.36;100.00;98975.16;5009890;28;20052;-69
2022/11/17 01:04:12;;;;;;;88.15;56.58;;;;;;;9.33;100.00;98963.41;5010408;28;20040;-69
2022/11/17 01:06:40;;;;;;;86.47;54.45;;;;;;;9.41;100.00;98963.09;5010095;28;20112;-69
2022/11/17 01:09:11;;;;;;;83.45;53.33;;;;;;;9.72;100.00;98996.53;5009907;28;20030;-69
2022/11/17 01:11:36;;;;;;;85.45;54.50;;;;;;;9.53;100.00;98955.84;5009614;28;20041;-69
2022/11/17 01:14:02;;;;;;;83.60;54.03;;;;;;;9.59;100.00;98969.97;5010167;28;20037;-70
2022/11/17 01:16:29;;;;;;;82.57;52.88;;;;;;;9.62;100.00;98977.47;5010362;28;20064;-70
2022/11/17 01:18:54;;;;;;;81.95;53.05;;;;;;;9.57;100.00;98946.38;5010412;28;20029;-69
2022/11/17 01:21:21;;;;;;;83.30;53.25;;;;;;;9.92;100.00;98994.00;5009791;28;20060;-69
2022/11/17 01:23:48;;;;;;;78.15;52.13;;;;;;;9.93;100.00;98982.13;5010529;28;20033;-70
2022/11/17 01:26:16;;;;;;;86.03;55.17;;;;;;;9.64;100.00;98935.13;5013139;28;20026;-69
2022/11/17 01:28:42;;;;;;;84.50;54.78;;;;;;;9.57;100.00;98915.94;5013360;28;20084;-70
2022/11/17 01:31:11;;;;;;;87.85;55.42;;;;;;;9.47;100.00;98895.19;5013023;28;20449;-70
2022/11/17 01:33:36;;;;;;;86.68;53.80;;;;;;;9.74;100.00;98945.69;5012178;28;20439;-70
2022/11/17 01:36:04;;;;;;;79.43;51.65;;;;;;;9.46;100.00;98880.06;5013195;28;20117;-68
2022/11/17 01:38:30;;;;;;;85.50;52.42;;;;;;;9.58;100.00;98910.81;5012812;28;20050;-69
2022/11/17 01:40:58;;;;;;;81.13;51.90;;;;;;;9.80;100.00;98948.81;5012046;28;20200;-70
2022/11/17 01:43:38;;;;;;;85.40;53.80;;;;;;;9.42;100.00;98904.72;5011813;28;20038;-70
2022/11/17 01:46:05;;;;;;;84.13;53.58;;;;;;;9.63;100.00;98932.66;5012961;28;20045;-69
2022/11/17 01:48:30;;;;;;;84.18;53.47;;;;;;;9.40;100.00;98900.59;5011998;28;20072;-70
2022/11/17 01:50:56;;;;;;;82.78;52.45;;;;;;;9.59;100.00;98937.00;5012864;28;20058;-69
2022/11/17 01:53:22;;;;;;;82.38;52.83;;;;;;;9.65;100.00;98931.66;5013161;28;20120;-70
2022/11/17 01:56:03;;;;;;;81.90;52.22;;;;;;;9.64;100.00;98942.72;5012619;28;20038;-70
2022/11/17 01:58:36;;;;;;;90.70;55.45;;;;;;;9.43;100.00;98935.97;5011470;28;20034;-70
2022/11/17 02:01:02;;;;;;;90.00;55.95;;;;;;;9.20;100.00;98900.56;5012881;28;20068;-70
2022/11/17 02:03:32;;;;;;;92.00;55.33;;;;;;;9.46;100.00;98940.94;5010849;28;20061;-70
2022/11/17 02:06:09;;;;;;;88.55;55.92;;;;;;;9.17;100.00;98895.63;5012987;28;20026;-69
2022/11/17 02:08:37;;;;;;;90.88;55.38;;;;;;;9.32;100.00;98903.44;5012423;28;20034;-69
2022/11/17 02:11:08;;;;;;;91.47;55.90;;;;;;;9.55;100.00;98930.41;5011420;28;20148;-70
2022/11/17 02:13:35;;;;;;;87.07;56.20;;;;;;;9.56;100.00;98919.38;5013127;28;20053;-69
2022/11/17 02:16:00;;;;;;;91.88;55.00;;;;;;;9.29;100.00;98890.06;5004490;28;20037;-69
2022/11/17 02:18:26;;;;;;;92.18;57.85;;;;;;;9.12;100.00;98875.53;4992913;28;20117;-70
2022/11/17 02:21:11;;;;;;;93.57;58.15;;;;;;;9.43;100.00;98925.81;4991343;28;20038;-70
2022/11/17 02:23:49;;;;;;;93.18;56.70;;;;;;;9.50;100.00;98914.56;4991248;28;20034;-69
2022/11/17 02:26:51;;;;;;;95.53;56.88;;;;;;;9.42;100.00;98926.72;4991435;28;20046;-70
2022/11/17 02:29:37;;;;;;;;;;;;;;;9.45;100.00;98913.91;4993518;28;20030;-70
2022/11/17 02:32:35;;;;;;;91.35;57.45;;;;;;;9.34;100.00;98921.97;4972605;28;19924;-71
2022/11/17 02:35:13;;;;;;;92.43;58.75;;;;;;;9.46;100.00;98928.25;4989300;28;20413;-71
2022/11/17 02:38:14;;;;;;;97.97;59.42;;;;;;;9.35;100.00;98928.66;4992691;28;20112;-69
2022/11/17 02:41:03;;;;;;;96.40;59.70;;;;;;;9.31;100.00;98922.06;4991356;28;20062;-70
2022/11/17 02:46:22;;;;;;;96.50;60.75;;;;;;;9.22;100.00;98891.19;4992487;28;20045;-70
2022/11/17 02:48:57;;;;;;;98.55;61.05;;;;;;;9.09;100.00;98912.84;4992882;28;20113;-70
2022/11/17 02:51:23;;;;;;;99.25;61.38;;;;;;;8.92;100.00;98867.88;4992256;28;20058;-69
2022/11/17 02:53:52;;;;;;;102.82;61.75;;;;;;;9.19;100.00;98894.66;4992216;28;20030;-69
2022/11/17 02:56:17;;;;;;;99.60;60.78;;;;;;;9.34;100.00;98905.91;4992006;28;20045;-69
2022/11/17 02:58:44;;;;;;;96.90;60.15;;;;;;;9.27;100.00;98894.38;4992461;28;20026;-71
2022/11/17 03:01:12;;;;;;;100.20;63.38;;;;;;;9.19;100.00;98897.19;4992557;28;20121;-69
2022/11/17 03:04:01;;;;;;;97.93;62.10;;;;;;;9.22;100.00;98876.81;4992064;28;20460;-70
2022/11/17 03:06:34;;;;;;;102.57;61.85;;;;;;;9.20;100.00;98875.22;4990443;28;20061;-69
2022/11/17 03:09:14;;;;;;;103.95;62.55;;;;;;;9.00;100.00;98875.19;4991765;28;20480;-69
2022/11/17 03:11:55;;;;;;;102.50;61.05;;;;;;;9.04;100.00;98871.63;4991875;28;20035;-69
2022/11/17 03:14:49;;;;;;;80.32;49.58;;;;;;;9.01;100.00;98892.03;5006743;28;20536;-68
2022/11/17 03:17:33;;;;;;;102.65;61.15;;;;;;;9.15;100.00;98890.59;4990509;28;20132;-69
2022/11/17 03:20:14;;;;;;;109.63;64.75;;;;;;;9.01;100.00;98889.50;4990218;28;20034;-69
2022/11/17 03:22:52;;;;;;;112.68;65.88;;;;;;;8.67;100.00;98836.78;4991392;28;20026;-68
2022/11/17 03:25:21;;;;;;;104.72;65.78;;;;;;;8.99;100.00;98888.75;4992069;28;20027;-69
2022/11/17 03:27:55;;;;;;;102.03;61.97;;;;;;;9.17;100.00;98883.75;5006669;28;20044;-68
2022/11/17 03:30:23;;;;;;;106.55;64.07;;;;;;;8.85;100.00;98832.72;4991772;28;20038;-69
2022/11/17 03:32:57;;;;;;;101.65;61.15;;;;;;;9.04;100.00;98864.03;4991279;28;20057;-69
2022/11/17 03:35:26;;;;;;;106.70;63.45;;;;;;;9.09;100.00;98887.50;4996695;28;20040;-69
2022/11/17 03:37:56;;;;;;;105.50;63.42;;;;;;;9.09;100.00;98879.91;4994145;28;20133;-69
2022/11/17 03:40:26;;;;;;;105.78;63.42;;;;;;;9.16;100.00;98886.34;4991224;28;20030;-69
2022/11/17 03:42:56;;;;;;;105.18;61.47;;;;;;;9.01;100.00;98841.34;4991549;28;20018;-69
2022/11/17 03:45:25;;;;;;;97.78;60.63;;;;;;;9.31;100.00;98875.63;4991240;28;20148;-69
2022/11/17 03:48:14;;;;;;;97.03;58.22;;;;;;;9.34;100.00;98860.25;4990587;28;20378;-70
2022/11/17 03:50:47;;;;;;;96.40;60.72;;;;;;;8.99;100.00;98807.66;4991580;28;20034;-69
2022/11/17 03:53:13;;;;;;;98.55;60.28;;;;;;;9.06;100.00;98809.88;4991497;28;20026;-69
2022/11/17 03:56:22;;;;;;;102.15;60.58;;;;;;;9.36;100.00;98863.56;4991548;28;20035;-69
2022/11/17 03:59:00;;;;;;;86.55;52.92;;;;;;;10.09;100.00;98798.59;4991145;28;20077;-72
2022/11/17 04:01:28;;;;;;;104.43;62.92;;;;;;;9.00;100.00;98807.56;4990962;28;20073;-68
2022/11/17 04:03:53;;;;;;;99.95;60.38;;;;;;;9.17;100.00;98842.38;4990940;28;20041;-68
2022/11/17 04:06:19;;;;;;;103.68;61.83;;;;;;;9.17;100.00;98822.09;4990869;28;20034;-69
2022/11/17 04:08:44;;;;;;;107.82;64.50;;;;;;;9.14;100.00;98809.53;4991089;28;20088;-69
2022/11/17 04:16:38;;;;;;;102.57;62.38;;;;;;;9.29;100.00;98836.81;4991147;28;20042;-69
2022/11/17 04:19:03;;;;;;;100.22;61.33;;;;;;;9.30;100.00;98824.06;5006710;28;20421;-68
2022/11/17 04:21:28;;;;;;;102.00;61.90;;;;;;;9.34;100.00;98832.38;5009822;28;20038;-69
2022/11/17 04:23:56;;;;;;;108.57;61.28;;;;;;;9.15;100.00;98791.72;5008774;28;20037;-69
2022/11/17 04:29:07;;;;;;;102.47;61.72;;;;;;;9.01;100.00;98804.16;5010244;28;20037;-69
2022/11/17 04:31:32;;;;;;;101.90;61.30;;;;;;;8.78;100.00;98763.72;5010281;28;20030;-69
2022/11/17 04:34:00;;;;;;;92.65;58.08;;;;;;;9.31;100.00;98830.78;5009963;28;20061;-69
2022/11/17 04:36:28;;;;;;;99.30;59.80;;;;;;;9.16;100.00;98806.06;5009574;28;20135;-68
2022/11/17 04:38:55;;;;;;;95.68;59.80;;;;;;;9.35;100.00;98847.50;5008310;28;20052;-67
2022/11/17 04:44:08;;;;;;;96.53;58.28;;;;;;;9.05;100.00;98799.78;5010278;28;20072;-69
2022/11/17 04:46:35;;;;;;;98.65;59.17;;;;;;;8.99;100.00;98787.38;5008677;28;20419;-69
2022/11/17 04:49:01;;;;;;;100.18;61.80;;;;;;;8.86;100.00;98791.28;5009670;28;20416;-69
2022/11/17 04:51:28;;;;;;;94.95;57.42;;;;;;;9.15;100.00;98828.97;5010067;28;20030;-68
2022/11/17 04:53:54;;;;;;;100.95;59.85;;;;;;;8.97;100.00;98802.66;5010350;28;20145;-69
2022/11/17 04:56:21;;;;;;;95.57;57.88;;;;;;;9.04;100.00;98790.53;5009406;28;20091;-68
2022/11/17 04:58:47;;;;;;;95.13;58.90;;;;;;;9.42;100.00;98830.34;5010374;28;20550;-69
2022/11/17 05:01:13;;;;;;;98.47;59.30;;;;;;;9.05;100.00;98776.97;5013026;28;20038;-66
2022/11/17 05:03:49;;;;;;;104.93;63.65;;;;;;;8.80;100.00;98743.38;5013310;28;20036;-67
2022/11/17 05:06:20;;;;;;;108.25;63.78;;;;;;;9.31;100.00;98809.69;5013388;28;20084;-68
2022/11/17 05:08:45;;;;;;;99.27;61.00;;;;;;;9.19;100.00;98772.16;5013249;28;20030;-65
2022/11/17 05:13:57;;;;;;;101.85;63.13;;;;;;;9.39;100.00;98818.59;5013518;28;20099;-67
2022/11/17 05:19:10;;;;;;;107.40;63.20;;;;;;;9.34;100.00;98829.84;5012740;28;20562;-69
2022/11/17 05:21:35;;;;;;;106.72;64.70;;;;;;;9.25;100.00;98842.91;5012701;28;20049;-68
2022/11/17 05:24:01;;;;;;;104.90;64.20;;;;;;;9.24;100.00;98815.88;5012521;28;20478;-68
2022/11/17 05:26:29;;;;;;;99.43;61.58;;;;;;;9.48;100.00;98814.88;5011463;28;20037;-68
2022/11/17 05:28:57;;;;;;;100.60;61.00;;;;;;;9.27;100.00;98818.31;5000340;28;20042;-67
2022/11/17 05:31:24;;;;;;;104.82;62.40;;;;;;;8.91;100.00;98728.56;4993518;28;20054;-67
2022/11/17 05:33:49;;;;;;;94.45;59.45;;;;;;;9.47;100.00;98803.88;5004722;28;20038;-67
2022/11/17 05:36:16;;;;;;;93.80;57.88;;;;;;;9.26;100.00;98778.63;5009937;28;20040;-67
2022/11/17 05:38:41;;;;;;;92.07;57.67;;;;;;;9.44;100.00;98798.13;4992793;28;20061;-67
2022/11/17 05:41:07;;;;;;;97.70;58.10;;;;;;;9.61;100.00;98763.53;4991577;28;20038;-68
2022/11/17 05:43:32;;;;;;;93.40;58.28;;;;;;;10.00;100.00;98773.63;4993454;28;20030;-66
2022/11/17 05:45:58;;;;;;;93.03;56.72;;;;;;;9.86;100.00;98814.06;4994082;28;20042;-66
2022/11/17 05:48:23;;;;;;;87.03;54.20;;;;;;;9.88;100.00;98770.81;4997553;28;20034;-67
2022/11/17 05:50:53;;;;;;;88.63;56.00;;;;;;;10.39;100.00;98827.72;5011178;28;20034;-68
2022/11/17 05:53:20;;;;;;;90.13;56.58;;;;;;;9.82;100.00;98793.94;5011047;28;20518;-68
2022/11/17 05:55:45;;;;;;;86.75;55.88;;;;;;;10.04;100.00;98775.13;5012299;28;20409;-67
2022/11/17 05:58:16;;;;;;;85.57;55.55;;;;;;;10.32;100.00;98811.09;5011773;28;20033;-67
2022/11/17 06:00:43;;;;;;;87.68;55.40;;;;;;;9.99;100.00;98796.53;5011956;28;20030;-67
2022/11/17 06:03:17;;;;;;;87.20;56.22;;;;;;;10.10;100.00;98792.66;5012108;28;20100;-68
2022/11/17 06:05:43;;;;;;;88.55;56.13;;;;;;;10.36;100.00;98805.00;5012167;28;20030;-67
2022/11/17 06:08:09;;;;;;;89.07;56.20;;;;;;;10.28;100.00;98816.41;5011044;28;20100;-67
2022/11/17 06:10:34;;;;;;;83.65;53.90;;;;;;;11.43;100.00;98813.38;5011835;28;20065;-70
2022/11/17 06:13:00;;;;;;;84.80;53.10;;;;;;;10.79;100.00;98777.56;5012217;28;20026;-68
2022/11/17 06:15:26;;;;;;;86.32;54.65;;;;;;;10.37;100.00;98773.63;5010693;28;20034;-67
2022/11/17 06:17:58;;;;;;;87.05;55.78;;;;;;;10.71;100.00;98815.25;5012002;28;20034;-68
2022/11/17 06:20:29;;;;;;;84.32;55.08;;;;;;;10.66;100.00;98769.69;5011829;28;20029;-67
2022/11/17 06:22:59;;;;;;;86.07;54.70;;;;;;;10.62;100.00;98788.53;5010725;28;20026;-68
2022/11/17 06:25:26;;;;;;;78.30;53.30;;;;;;;10.63;100.00;98814.78;5012596;28;20034;-68
2022/11/17 06:27:53;;;;;;;77.95;52.97;;;;;;;10.45;100.00;98771.56;5012053;28;20095;-68
2022/11/17 06:30:19;;;;;;;76.45;51.10;;;;;;;10.30;100.00;98741.78;5010694;28;20447;-68
2022/11/17 06:32:45;;;;;;;76.68;51.65;;;;;;;10.80;100.00;98774.13;5011886;28;20034;-68
2022/11/17 06:35:13;;;;;;;75.72;50.45;;;;;;;11.05;100.00;98810.19;5011672;28;20029;-67
2022/11/17 06:37:39;;;;;;;73.63;50.47;;;;;;;10.79;100.00;98759.78;5011987;28;20068;-67
2022/11/17 06:40:05;;;;;;;76.47;51.90;;;;;;;10.80;100.00;98794.44;5011783;28;20053;-67
2022/11/17 06:45:14;;;;;;;77.88;51.78;;;;;;;11.05;100.00;98810.19;5011402;28;20104;-68
2022/11/17 06:47:39;;;;;;;75.68;50.97;;;;;;;11.18;100.00;98813.78;5012031;28;20026;-67
2022/11/17 06:50:06;;;;;;;78.45;53.42;;;;;;;11.09;100.00;98804.84;5011308;28;20531;-67
2022/11/17 06:52:31;;;;;;;75.70;52.33;;;;;;;11.00;100.00;98807.88;5009667;28;20026;-67
2022/11/17 06:54:57;;;;;;;75.07;50.63;;;;;;;10.95;100.00;98753.06;5011193;28;20092;-68
2022/11/17 06:57:22;;;;;;;75.50;50.90;;;;;;;10.89;100.00;98755.91;5011903;28;20125;-68
2022/11/17 06:59:47;;;;;;;77.05;52.00;;;;;;;10.92;100.00;98756.56;5009914;28;20034;-67
2022/11/17 07:02:13;;;;;;;73.32;50.03;;;;;;;11.16;100.00;98785.03;5011131;28;20049;-68
2022/11/17 07:04:38;;;;;;;76.28;51.85;;;;;;;10.80;100.00;98713.94;5011531;28;20028;-67
2022/11/17 07:07:04;;;;;;;75.05;50.15;;;;;;;11.04;100.00;98737.31;5011042;28;20417;-68
2022/11/17 07:09:29;;;;;;;75.63;50.63;;;;;;;11.21;100.00;98762.75;5011303;28;20063;-68
2022/11/17 07:11:55;;;;;;;79.57;51.33;;;;;;;11.27;100.00;98788.69;5011239;28;20065;-68
2022/11/17 07:14:20;;;;;;;79.47;51.83;;;;;;;11.18;100.00;98795.97;5009478;28;20059;-68
2022/11/17 07:16:46;;;;;;;79.18;52.30;;;;;;;11.24;100.00;98798.22;5010119;28;20411;-67
2022/11/17 07:19:12;;;;;;;77.10;52.47;;;;;;;11.39;100.00;98784.72;5009899;28;20026;-69
2022/11/17 07:21:37;;;;;;;76.80;53.20;;;;;;;11.51;100.00;98791.72;5008904;28;20038;-68
2022/11/17 07:24:03;;;;;;;78.15;52.70;;;;;;;11.32;100.00;98789.31;5011168;28;20041;-68
2022/11/17 07:26:28;;;;;;;77.93;51.88;;;;;;;11.33;100.00;98772.28;5010948;28;20018;-67
2022/11/17 07:28:54;;;;;;;80.90;52.42;;;;;;;11.39;100.00;98771.97;5011168;28;20033;-68
2022/11/17 07:31:20;;;;;;;76.25;51.70;;;;;;;11.23;100.00;98735.53;5011224;28;20117;-68
2022/11/17 07:33:45;;;;;;;70.88;48.83;;;;;;;11.46;100.00;98762.31;5010610;28;21024;-68
2022/11/17 07:36:13;;;;;;;73.20;50.15;;;;;;;11.32;100.00;98722.31;5010887;28;20030;-67
2022/11/17 07:38:39;;;;;;;70.15;49.83;;;;;;;11.45;100.00;98737.78;5010562;28;20041;-67
2022/11/17 07:41:05;;;;;;;78.85;52.72;;;;;;;11.68;100.00;98773.09;5010029;28;20482;-68
2022/11/17 07:43:32;;;;;;;77.55;52.33;;;;;;;11.59;100.00;98756.53;5025777;28;20026;-67
2022/11/17 07:46:01;;;;;;;73.82;50.55;;;;;;;11.44;100.00;98725.97;5010798;28;20030;-67
2022/11/17 07:48:27;;;;;;;72.85;50.25;;;;;;;11.75;100.00;98764.22;5010861;28;20033;-68
2022/11/17 07:50:52;;;;;;;72.32;48.28;;;;;;;11.52;100.00;98729.75;5010830;28;20543;-67
2022/11/17 07:53:17;;;;;;;70.15;47.47;;;;;;;11.79;100.00;98771.63;5010642;28;20036;-68
2022/11/17 07:55:43;;;;;;;69.50;47.67;;;;;;;11.71;100.00;98739.81;5010384;28;20164;-68
2022/11/17 07:58:09;;;;;;;66.95;46.80;;;;;;;11.91;100.00;98768.44;5009081;28;20470;-68
2022/11/17 08:00:34;;;;;;;67.93;46.97;;;;;;;11.70;100.00;98736.47;5010246;28;20034;-68
2022/11/17 08:03:02;;;;;;;71.32;48.53;;;;;;;11.69;100.00;98726.34;5010704;28;20052;-68
2022/11/17 08:05:29;;;;;;;70.20;48.08;;;;;;;11.56;100.00;98697.31;5010581;28;20148;-67
2022/11/17 08:07:56;;;;;;;63.38;46.15;;;;;;;11.87;100.00;98743.19;5010539;28;20111;-67
2022/11/17 08:10:22;;;;;;;69.60;47.35;;;;;;;11.65;100.00;98709.56;5025197;28;20420;-68
2022/11/17 08:12:51;;;;;;;68.57;46.90;;;;;;;11.99;100.00;98755.28;5008937;28;20041;-68
2022/11/17 08:15:16;;;;;;;71.43;47.45;;;;;;;11.83;100.00;98742.53;5010364;28;20030;-68
2022/11/17 08:17:42;;;;;;;72.75;49.67;;;;;;;11.59;100.00;98700.53;5010252;28;20040;-68
2022/11/17 08:20:08;;;;;;;68.00;48.03;;;;;;;12.04;100.00;98779.59;5008961;28;20489;-68
2022/11/17 08:22:33;;;;;;;67.90;48.60;;;;;;;12.01;100.00;98777.22;5009963;28;20048;-68
2022/11/17 08:24:59;;;;;;;68.45;49.28;;;;;;;11.72;100.00;98732.13;5008898;28;20030;-67
2022/11/17 08:27:24;;;;;;;69.18;50.03;;;;;;;11.89;100.00;98749.88;5009063;28;20420;-68
2022/11/17 08:29:50;;;;;;;75.55;53.03;;;;;;;12.01;100.00;98769.59;5008589;28;20058;-67
2022/11/17 08:32:16;;;;;;;78.50;52.92;;;;;;;11.95;100.00;98753.81;5010062;28;20038;-67
2022/11/17 08:34:41;;;;;;;76.53;53.17;;;;;;;11.74;100.00;98720.13;5014233;28;20412;-68
2022/11/17 08:37:06;;;;;;;78.35;53.42;;;;;;;12.12;100.00;98774.13;5014097;28;20116;-68
2022/11/17 08:39:32;;;;;;;78.57;52.10;;;;;;;12.06;100.00;98762.50;5013815;28;20026;-68
2022/11/17 08:41:57;;;;;;;76.88;53.50;;;;;;;12.07;100.00;98759.06;5013778;28;20042;-67
2022/11/17 08:44:23;;;;;;;80.03;51.85;;;;;;;12.12;100.00;98769.03;5014029;28;20030;-67
2022/11/17 08:46:48;;;;;;;77.25;51.38;;;;;;;12.12;100.00;98769.81;5014288;28;20029;-68
2022/11/17 08:49:14;;;;;;;78.60;52.28;;;;;;;12.20;100.00;98772.78;5013427;28;20456;-68
2022/11/17 08:51:39;;;;;;;76.57;51.55;;;;;;;11.97;100.00;98754.53;5013952;28;20037;-68
2022/11/17 08:54:04;;;;;;;72.40;51.47;;;;;;;12.22;100.00;98784.63;5013913;28;20408;-68
2022/11/17 08:56:30;;;;;;;74.25;50.17;;;;;;;11.92;100.00;98766.72;5013717;28;20496;-68
2022/11/17 08:58:55;;;;;;;74.63;51.25;;;;;;;12.25;100.00;98802.28;5013866;28;20401;-68
2022/11/17 09:01:21;;;;;;;83.97;54.60;;;;;;;12.07;100.00;98768.44;5013870;28;20030;-68
2022/11/17 09:03:46;;;;;;;92.38;61.60;;;;;;;12.00;100.00;98752.66;5013695;28;20029;-67
2022/11/17 09:06:14;;;;;;;87.85;59.72;;;;;;;12.03;100.00;98770.31;5013610;28;20435;-68
2022/11/17 09:08:40;;;;;;;86.65;60.75;;;;;;;12.08;100.00;98783.63;5013487;28;20030;-68
2022/11/17 09:11:07;;;;;;;108.00;74.78;;;;;;;12.20;100.00;98797.47;5013289;28;20018;-67
2022/11/17 09:13:34;;;;;;;115.20;82.68;;;;;;;12.22;100.00;98789.72;5013273;28;20030;-68
2022/11/17 09:16:10;;;;;;;97.35;65.47;;;;;;;12.17;100.00;98792.50;5012114;28;20030;-67
2022/11/17 09:18:37;;;;;;;97.45;65.72;;;;;;;12.11;100.00;98791.13;5013179;28;20575;-67
2022/11/17 09:21:08;;;;;;;113.60;69.63;;;;;;;12.25;100.00;98800.56;5012082;28;20034;-67
2022/11/17 09:23:34;;;;;;;110.05;75.18;;;;;;;12.15;100.00;98797.69;5013078;28;20037;-67
2022/11/17 09:26:05;;;;;;;112.22;74.65;;;;;;;11.93;100.00;98789.53;5013264;28;20381;-66
2022/11/17 09:28:30;;;;;;;122.22;84.10;;;;;;;11.80;100.00;98765.63;5013623;28;20115;-67
2022/11/17 09:30:56;;;;;;;101.95;67.45;;;;;;;12.12;100.00;98810.59;5013236;28;20100;-67
2022/11/17 09:33:21;;;;;;;89.32;60.55;;;;;;;12.12;100.00;98797.84;5011438;28;20121;-67
2022/11/17 09:35:46;;;;;;;93.25;61.00;;;;;;;12.10;100.00;98794.56;5011536;28;20029;-67
2022/11/17 09:38:12;;;;;;;90.45;60.65;;;;;;;11.97;100.00;98780.84;5012806;28;20452;-67
2022/11/17 09:40:39;;;;;;;91.45;61.30;;;;;;;11.93;100.00;98753.91;5013167;28;20026;-67
2022/11/17 09:43:24;;;;;;;90.63;59.58;;;;;;;12.16;100.00;98794.22;5012576;28;20033;-67
2022/11/17 09:45:51;;;;;;;86.57;58.17;;;;;;;11.93;100.00;98755.59;5011991;28;20034;-67
2022/11/17 09:48:26;;;;;;;89.93;62.38;;;;;;;11.94;100.00;98763.16;5013002;28;20037;-67
2022/11/17 09:50:57;;;;;;;96.47;68.68;;;;;;;12.03;100.00;98787.31;5011431;28;20030;-67
2022/11/17 09:53:28;;;;;;;93.93;64.68;;;;;;;11.79;100.00;98728.34;5013082;28;20423;-67
2022/11/17 09:56:01;;;;;;;81.38;57.08;;;;;;;12.25;100.00;98809.94;5012844;28;20041;-66
2022/11/17 09:58:29;;;;;;;75.15;50.70;;;;;;;12.22;100.00;98800.75;5012706;28;20100;-67
2022/11/17 10:00:55;;;;;;;78.00;51.33;;;;;;;12.22;100.00;98790.56;5011024;28;20052;-67
2022/11/17 10:03:33;;;;;;;81.03;53.58;;;;;;;11.96;100.00;98750.38;5012361;28;20488;-67
2022/11/17 10:06:02;;;;;;;78.43;55.60;;;;;;;12.25;100.00;98784.44;5008253;28;20034;-67
2022/11/17 10:08:48;;;;;;;87.45;57.42;;;;;;;12.25;100.00;98795.47;5012779;28;20026;-67
2022/11/17 10:11:31;;;;;;;84.03;59.08;;;;;;;12.30;100.00;98780.75;5011094;28;20030;-67
2022/11/17 10:14:12;;;;;;;92.03;62.65;;;;;;;12.37;100.00;98791.44;5011408;28;20077;-67
2022/11/17 10:16:41;;;;;;;91.23;62.20;;;;;;;11.99;100.00;98723.00;5011101;28;20558;-67
2022/11/17 10:19:21;;;;;;;84.85;60.33;;;;;;;12.07;100.00;98732.78;5012486;28;20069;-67
2022/11/17 10:22:36;;;;;;;116.18;83.13;;;;;;;12.41;100.00;98752.97;5011098;28;20048;-68
2022/11/17 10:25:01;;;;;;;150.57;106.68;;;;;;;12.40;100.00;98741.13;5003093;28;20060;-68
2022/11/17 10:27:33;;;;;;;108.45;71.43;;;;;;;12.12;100.00;98688.31;5010451;28;20396;-67
2022/11/17 10:30:00;;;;;;;;;;;;;;;12.36;100.00;98714.16;5012797;28;20092;-68
2022/11/17 10:32:31;;;;;;;101.57;69.38;;;;;;;12.06;100.00;98667.47;5011898;28;20007;-67
2022/11/17 10:35:21;;;;;;;94.60;63.05;;;;;;;12.43;100.00;98707.81;5012000;28;20084;-68
2022/11/17 10:38:02;;;;;;;101.80;68.75;;;;;;;12.52;100.00;98716.69;5003095;28;20053;-67
2022/11/17 10:40:44;;;;;;;94.53;65.13;;;;;;;12.47;100.00;98728.84;5011852;28;20025;-67
2022/11/17 10:43:12;;;;;;;;;;;;;;;12.40;100.00;98735.22;5012543;28;20037;-67
2022/11/17 10:45:50;;;;;;;97.65;64.85;;;;;;;12.20;100.00;98700.66;5010532;28;19975;-67
2022/11/17 10:48:23;;;;;;;104.78;69.22;;;;;;;12.47;100.00;98731.41;5012121;28;20443;-66
2022/11/17 10:51:08;;;;;;;88.50;58.60;;;;;;;12.38;100.00;98694.50;5010351;28;20045;-67
2022/11/17 10:53:41;;;;;;;103.90;71.45;;;;;;;12.24;100.00;98675.81;5010651;28;20420;-68
2022/11/17 10:56:23;;;;;;;105.03;71.30;;;;;;;12.49;100.00;98724.50;5010565;28;20467;-67
2022/11/17 10:59:16;;;;;;;113.57;79.43;;;;;;;12.54;100.00;98718.22;5010249;28;20026;-67
2022/11/17 11:01:45;;;;;;;112.05;83.22;;;;;;;12.60;100.00;98719.59;5011289;28;20025;-67
2022/11/17 11:04:38;;;;;;;104.25;77.82;;;;;;;12.65;100.00;98738.03;5011605;28;20041;-67
2022/11/17 11:07:08;;;;;;;111.13;81.55;;;;;;;12.30;100.00;98694.09;5011166;28;20074;-67
2022/11/17 11:09:40;;;;;;;98.30;72.57;;;;;;;12.57;100.00;98741.00;5011498;28;20018;-67
2022/11/17 11:12:12;;;;;;;93.28;64.57;;;;;;;12.26;100.00;98690.09;5011423;28;20462;-67
2022/11/17 11:15:04;;;;;;;83.35;55.30;;;;;;;12.57;100.00;98751.22;5011581;28;20492;-67
2022/11/17 11:17:29;;;;;;;74.32;52.63;;;;;;;12.56;100.00;98741.91;5006627;28;20038;-67
2022/11/17 11:19:58;;;;;;;81.32;57.00;;;;;;;12.61;100.00;98739.94;5010857;28;20094;-67
2022/11/17 11:22:26;;;;;;;84.55;57.35;;;;;;;12.60;100.00;98751.03;5010786;28;20034;-67
2022/11/17 11:24:58;;;;;;;90.95;59.80;;;;;;;12.69;100.00;98755.63;5009848;28;20030;-67
2022/11/17 11:27:50;;;;;;;82.72;57.03;;;;;;;12.85;100.00;98737.72;5011084;28;20062;-67
2022/11/17 11:30:17;;;;;;;85.90;59.67;;;;;;;12.91;100.00;98706.78;5011002;28;20516;-67
2022/11/17 11:33:01;;;;;;;81.68;55.38;;;;;;;12.78;100.00;98734.69;5010823;28;20033;-67
2022/11/17 11:35:58;;;;;;;74.47;51.13;;;;;;;12.70;100.00;98733.47;5010889;28;20057;-67
2022/11/17 11:38:29;;;;;;;88.38;60.20;;;;;;;12.79;100.00;98753.38;5009681;28;20042;-67
2022/11/17 11:41:21;;;;;;;90.28;61.60;;;;;;;12.71;100.00;98745.34;5011348;28;20026;-67
2022/11/17 11:44:10;;;;;;;89.35;60.13;;;;;;;12.75;100.00;98746.81;5006078;28;20089;-67
2022/11/17 11:46:54;;;;;;;84.75;57.30;;;;;;;12.84;100.00;98764.13;5005046;28;20042;-68
2022/11/17 11:49:44;;;;;;;88.28;56.13;;;;;;;12.76;100.00;98756.91;5009397;28;20053;-66
2022/11/17 11:52:17;;;;;;;103.05;69.15;;;;;;;12.68;100.00;98715.72;5011647;28;20040;-67
2022/11/17 11:55:00;;;;;;;94.60;64.25;;;;;;;12.71;100.00;98724.94;5010815;28;20037;-67
2022/11/17 11:57:34;;;;;;;76.10;52.05;;;;;;;12.41;100.00;98691.81;5010557;28;20036;-67